Time;durP1;ratioP1;P1;durP2;ratioP2;P2;SDS_P1;SDS_P2;PMS_P1;PMS_P2;Temp;Humidity;BMP_temperature;BMP_pressure;BME280_temperature;BME280_humidity;BME280_pressure;Samples;Min_cycle;Max_cycle;Signal;HPM_P1;HPM_P2
2022/12/01 00:01:14;;;;;;;70.05;28.88;;;6.00;99.90;;;;;;4937737;29;20039;-92
2022/12/01 00:03:40;;;;;;;77.22;29.27;;;6.00;99.90;;;;;;4922412;29;20209;-91
2022/12/01 00:06:25;;;;;;;67.47;25.40;;;6.00;99.90;;;;;;4920941;29;20069;-92
2022/12/01 00:11:37;;;;;;;64.72;25.08;;;6.00;99.90;;;;;;4938214;29;20130;-93
2022/12/01 00:14:03;;;;;;;71.15;26.50;;;6.00;99.90;;;;;;4921879;29;20044;-92
2022/12/01 00:16:29;;;;;;;65.40;25.33;;;6.00;99.90;;;;;;4921377;29;20048;-92
2022/12/01 00:18:55;;;;;;;69.85;27.45;;;6.00;99.90;;;;;;4937595;29;20473;-93
2022/12/01 00:21:23;;;;;;;61.08;26.13;;;5.90;99.90;;;;;;4936061;29;20107;-92
2022/12/01 00:23:52;;;;;;;69.68;27.83;;;6.00;99.90;;;;;;4937920;29;20385;-92
2022/12/01 00:26:19;;;;;;;58.92;25.30;;;6.00;99.90;;;;;;4942404;28;20084;-91
2022/12/01 00:28:51;;;;;;;71.85;32.13;;;6.00;99.90;;;;;;4943213;28;20393;-91
2022/12/01 00:31:17;;;;;;;71.97;30.15;;;6.00;99.90;;;;;;4944319;28;20098;-91
2022/12/01 00:33:43;;;;;;;66.78;25.30;;;6.00;99.90;;;;;;4959177;28;20495;-92
2022/12/01 00:36:09;;;;;;;66.90;27.40;;;6.00;99.90;;;;;;4959073;28;20038;-92
2022/12/01 00:38:35;;;;;;;66.55;28.10;;;6.00;99.90;;;;;;4959478;28;20105;-92
2022/12/01 00:41:00;;;;;;;65.90;25.80;;;6.00;99.90;;;;;;4977007;28;20147;-93
2022/12/01 00:43:26;;;;;;;72.13;26.42;;;6.00;99.90;;;;;;4939360;29;20051;-91
2022/12/01 00:45:52;;;;;;;62.38;23.23;;;6.00;99.90;;;;;;4939952;29;20035;-91
2022/12/01 00:48:17;;;;;;;66.00;26.52;;;6.00;99.90;;;;;;4963022;28;20054;-91
2022/12/01 00:50:43;;;;;;;63.17;26.38;;;6.00;99.90;;;;;;4943248;28;20038;-92
2022/12/01 00:53:09;;;;;;;64.85;24.92;;;6.00;99.90;;;;;;4958493;28;20070;-91
2022/12/01 00:55:35;;;;;;;70.82;27.58;;;6.00;99.90;;;;;;4958042;28;20058;-91
2022/12/01 00:58:00;;;;;;;64.13;26.60;;;6.00;99.90;;;;;;4957401;28;20038;-92
2022/12/01 01:00:26;;;;;;;65.03;26.35;;;6.00;99.90;;;;;;4959077;28;20580;-92
2022/12/01 01:02:52;;;;;;;68.18;27.48;;;6.00;99.90;;;;;;4956687;28;20039;-91
2022/12/01 01:05:17;;;;;;;70.18;25.60;;;6.00;99.90;;;;;;4952120;29;20050;-92
2022/12/01 01:07:43;;;;;;;67.38;24.10;;;6.00;99.90;;;;;;4924482;29;20107;-92
2022/12/01 01:10:09;;;;;;;62.60;26.20;;;6.00;99.90;;;;;;4939610;29;20278;-92
2022/12/01 01:12:35;;;;;;;60.80;24.52;;;6.00;99.90;;;;;;4944875;28;20085;-92
2022/12/01 01:15:01;;;;;;;64.35;29.40;;;6.00;99.90;;;;;;4942685;28;20082;-93
2022/12/01 01:17:26;;;;;;;64.85;24.77;;;6.00;99.90;;;;;;4942526;28;20074;-92
2022/12/01 01:19:52;;;;;;;68.45;25.27;;;6.00;99.90;;;;;;4959329;28;20097;-91
2022/12/01 01:22:18;;;;;;;59.22;25.45;;;6.00;99.90;;;;;;4970859;28;20102;-91
2022/12/01 01:24:43;;;;;;;70.93;29.65;;;6.00;99.90;;;;;;4961043;28;20109;-93
2022/12/01 01:27:09;;;;;;;65.75;29.15;;;6.00;99.90;;;;;;4957500;28;20073;-91
2022/12/01 01:29:35;;;;;;;69.20;28.00;;;6.00;99.90;;;;;;4974376;28;20047;-91
2022/12/01 01:32:01;;;;;;;63.95;25.30;;;6.00;99.90;;;;;;4942417;28;20126;-92
2022/12/01 01:34:29;;;;;;;62.35;25.60;;;6.00;99.90;;;;;;4975009;28;20034;-92
2022/12/01 01:36:55;;;;;;;60.10;25.05;;;6.00;99.90;;;;;;4942767;28;20380;-91
2022/12/01 01:39:20;;;;;;;60.95;23.02;;;6.00;99.90;;;;;;4942303;28;20039;-92
2022/12/01 01:41:46;;;;;;;65.30;24.80;;;6.00;99.90;;;;;;4941730;28;20041;-90
2022/12/01 01:45:00;;;;;;;68.40;27.20;;;6.00;99.90;;;;;;4959116;28;20085;-92
2022/12/01 01:47:31;;;;;;;66.75;26.38;;;6.00;99.90;;;;;;4925257;28;20376;-92
2022/12/01 01:50:04;;;;;;;;;;;6.00;99.90;;;;;;4958432;28;20046;-92
2022/12/01 01:52:29;;;;;;;61.60;26.23;;;6.00;99.90;;;;;;4942474;28;19918;-93
2022/12/01 01:54:55;;;;;;;63.97;25.83;;;6.00;99.90;;;;;;4973661;28;20046;-92
2022/12/01 01:57:28;;;;;;;71.18;26.15;;;6.00;99.90;;;;;;4941622;28;20122;-92
2022/12/01 02:00:09;;;;;;;65.47;27.95;;;6.10;99.90;;;;;;4957088;28;20098;-92
2022/12/01 02:02:39;;;;;;;60.20;23.95;;;6.00;99.90;;;;;;4957499;28;20047;-92
2022/12/01 02:05:09;;;;;;;69.97;27.25;;;6.00;99.90;;;;;;4957383;28;20424;-92
2022/12/01 02:07:36;;;;;;;63.80;27.35;;;6.00;99.90;;;;;;4975398;28;20043;-91
2022/12/01 02:10:03;;;;;;;64.72;26.48;;;6.00;99.90;;;;;;4974371;28;20049;-91
2022/12/01 02:12:50;;;;;;;59.55;27.10;;;6.00;99.90;;;;;;4974210;28;20137;-92
2022/12/01 02:15:35;;;;;;;68.57;29.65;;;6.00;99.90;;;;;;4956320;28;20055;-92
2022/12/01 02:18:41;;;;;;;66.53;31.02;;;6.00;99.90;;;;;;4941586;28;20051;-92
2022/12/01 02:21:24;;;;;;;64.68;27.30;;;6.00;99.90;;;;;;4953348;28;20133;-92
2022/12/01 02:24:22;;;;;;;65.68;26.25;;;6.00;99.90;;;;;;4957347;28;20057;-91
2022/12/01 02:27:01;;;;;;;62.78;26.65;;;6.00;99.90;;;;;;4911878;28;20043;-90
2022/12/01 02:29:45;;;;;;;68.47;26.55;;;6.00;99.90;;;;;;4975720;28;20101;-92
2022/12/01 02:32:20;;;;;;;71.65;31.02;;;6.00;99.90;;;;;;4973917;28;20050;-92
2022/12/01 02:35:20;;;;;;;63.28;26.88;;;6.00;99.90;;;;;;4957202;28;20043;-93
2022/12/01 02:38:11;;;;;;;64.07;25.83;;;6.00;99.90;;;;;;4925802;28;20051;-91
2022/12/01 02:41:07;;;;;;;65.25;27.90;;;6.00;99.90;;;;;;4974875;28;20274;-92
2022/12/01 02:43:44;;;;;;;60.78;26.75;;;6.00;99.90;;;;;;4969874;28;20059;-90
2022/12/01 02:46:25;;;;;;;62.80;26.13;;;5.90;99.90;;;;;;4940751;28;20046;-93
2022/12/01 02:48:54;;;;;;;61.42;25.23;;;5.90;99.90;;;;;;4957553;28;20554;-91
2022/12/01 02:51:25;;;;;;;61.92;25.92;;;5.90;99.90;;;;;;4957752;28;20443;-92
2022/12/01 02:53:53;;;;;;;72.10;30.33;;;5.90;99.90;;;;;;4956004;28;20097;-91
2022/12/01 02:56:21;;;;;;;69.82;30.45;;;6.00;99.90;;;;;;4956920;28;20043;-92
2022/12/01 02:58:47;;;;;;;64.45;26.35;;;5.90;99.90;;;;;;4940525;28;20050;-91
2022/12/01 03:01:31;;;;;;;68.00;30.15;;;5.90;99.90;;;;;;4957156;28;20392;-92
2022/12/01 03:03:59;;;;;;;64.25;28.10;;;6.00;99.90;;;;;;4941507;28;20447;-92
2022/12/01 03:06:38;;;;;;;60.17;26.00;;;5.90;99.90;;;;;;4973780;28;20051;-92
2022/12/01 03:09:04;;;;;;;63.42;25.75;;;6.00;99.90;;;;;;4974246;28;20053;-91
2022/12/01 03:11:37;;;;;;;56.97;27.23;;;5.90;99.90;;;;;;4940457;28;20102;-92
2022/12/01 03:14:24;;;;;;;66.18;27.67;;;6.00;99.90;;;;;;4957513;28;20043;-92
2022/12/01 03:16:52;;;;;;;63.63;28.30;;;5.90;99.90;;;;;;4962235;28;20055;-92
2022/12/01 03:19:29;;;;;;;66.25;27.38;;;5.90;99.90;;;;;;4971292;28;20424;-92
2022/12/01 03:22:07;;;;;;;73.60;31.17;;;5.90;99.90;;;;;;4980813;28;20457;-92
2022/12/01 03:24:35;;;;;;;65.10;26.42;;;5.90;99.90;;;;;;4945256;28;20097;-92
2022/12/01 03:27:02;;;;;;;60.13;26.58;;;5.90;99.90;;;;;;4959941;28;20061;-92
2022/12/01 03:29:38;;;;;;;65.80;29.02;;;6.00;99.90;;;;;;4945213;28;20046;-92
2022/12/01 03:32:39;;;;;;;73.03;28.77;;;5.90;99.90;;;;;;4976218;28;20137;-92
2022/12/01 03:35:09;;;;;;;65.70;28.85;;;5.90;99.90;;;;;;4930801;29;20139;-92
2022/12/01 03:37:44;;;;;;;65.40;29.65;;;5.90;99.90;;;;;;4941006;29;20054;-93
2022/12/01 03:40:16;;;;;;;68.32;28.08;;;5.90;99.90;;;;;;4926233;28;20055;-90
2022/12/01 03:43:06;;;;;;;70.10;32.78;;;5.90;99.90;;;;;;4960527;28;20053;-92
2022/12/01 03:45:59;;;;;;;62.40;26.40;;;5.90;99.90;;;;;;4977903;28;20050;-91
2022/12/01 03:48:26;;;;;;;61.13;26.23;;;5.90;99.90;;;;;;4945240;28;20057;-90
2022/12/01 03:51:00;;;;;;;65.38;30.00;;;5.90;99.90;;;;;;4960070;28;20043;-92
2022/12/01 03:53:34;;;;;;;60.95;27.85;;;5.90;99.90;;;;;;4966334;28;20046;-91
2022/12/01 03:56:04;;;;;;;71.95;31.88;;;5.90;99.90;;;;;;4965201;28;20047;-90
2022/12/01 03:58:41;;;;;;;57.13;25.70;;;5.90;99.90;;;;;;4962248;28;20065;-91
2022/12/01 04:01:07;;;;;;;67.22;30.95;;;5.90;99.90;;;;;;4961862;28;20034;-92
2022/12/01 04:03:33;;;;;;;68.55;32.72;;;5.90;99.90;;;;;;4961854;28;20148;-91
2022/12/01 04:05:59;;;;;;;64.88;26.83;;;5.90;99.90;;;;;;4947475;28;20060;-92
2022/12/01 04:08:25;;;;;;;66.25;29.58;;;5.90;99.90;;;;;;4980269;28;20066;-92
2022/12/01 04:10:51;;;;;;;66.18;27.50;;;5.90;99.90;;;;;;4962535;28;20042;-92
2022/12/01 04:13:22;;;;;;;62.53;28.23;;;5.90;99.90;;;;;;4947823;28;20047;-91
2022/12/01 04:15:50;;;;;;;68.18;28.58;;;5.90;99.90;;;;;;4963607;28;20042;-91
2022/12/01 04:18:16;;;;;;;66.20;30.70;;;5.90;99.90;;;;;;4963096;28;20077;-91
2022/12/01 04:20:44;;;;;;;72.38;33.63;;;5.90;99.90;;;;;;4962997;28;20065;-91
2022/12/01 04:23:10;;;;;;;62.72;27.92;;;5.90;99.90;;;;;;4964545;28;20133;-92
2022/12/01 04:25:35;;;;;;;63.65;26.85;;;5.80;99.90;;;;;;4965224;28;20051;-92
2022/12/01 04:28:01;;;;;;;68.93;32.13;;;5.80;99.90;;;;;;4976239;28;20094;-92
2022/12/01 04:30:27;;;;;;;73.78;33.38;;;5.80;99.90;;;;;;4997891;28;20063;-93
2022/12/01 04:32:52;;;;;;;67.55;28.77;;;5.80;99.90;;;;;;4997101;28;20038;-92
2022/12/01 04:35:18;;;;;;;65.95;28.45;;;5.80;99.90;;;;;;4965225;28;20057;-91
2022/12/01 04:37:43;;;;;;;68.82;27.63;;;5.80;99.90;;;;;;4982167;28;20023;-92
2022/12/01 04:40:09;;;;;;;64.85;29.92;;;5.80;99.90;;;;;;4981754;28;20078;-93
2022/12/01 04:42:35;;;;;;;70.72;30.00;;;5.90;99.90;;;;;;4965204;28;20053;-92
2022/12/01 04:45:01;;;;;;;71.80;29.27;;;5.80;99.90;;;;;;4983182;28;20027;-92
2022/12/01 04:47:26;;;;;;;65.65;27.77;;;5.80;99.90;;;;;;4947903;29;20051;-92
2022/12/01 04:49:53;;;;;;;68.50;30.02;;;5.80;99.90;;;;;;4962864;29;20054;-91
2022/12/01 04:52:18;;;;;;;68.60;31.85;;;5.80;99.90;;;;;;4981569;28;20047;-91
2022/12/01 04:54:44;;;;;;;68.72;29.65;;;5.80;99.90;;;;;;4980169;28;20102;-92
2022/12/01 04:57:10;;;;;;;66.50;27.23;;;5.80;99.90;;;;;;4964650;28;20054;-92
2022/12/01 04:59:35;;;;;;;69.63;30.77;;;5.80;99.90;;;;;;4975540;28;20067;-92
2022/12/01 05:02:02;;;;;;;63.40;26.30;;;5.80;99.90;;;;;;4975309;28;20099;-92
2022/12/01 05:04:30;;;;;;;70.65;30.92;;;5.80;99.90;;;;;;4970722;28;20066;-92
2022/12/01 05:06:55;;;;;;;61.40;26.58;;;5.80;99.90;;;;;;4956113;28;20047;-91
2022/12/01 05:09:21;;;;;;;64.13;27.75;;;5.80;99.90;;;;;;4964947;28;20400;-92
2022/12/01 05:11:47;;;;;;;62.30;28.13;;;5.80;99.90;;;;;;4929422;29;20055;-92
2022/12/01 05:14:12;;;;;;;67.18;29.95;;;5.80;99.90;;;;;;4927282;29;20110;-92
2022/12/01 05:16:38;;;;;;;68.53;28.95;;;5.80;99.90;;;;;;4952096;28;20046;-93
2022/12/01 05:21:50;;;;;;;69.45;28.08;;;5.70;99.90;;;;;;4959808;28;20133;-92
2022/12/01 05:24:17;;;;;;;64.93;26.58;;;5.70;99.90;;;;;;4976927;28;20042;-93
2022/12/01 05:26:44;;;;;;;69.18;27.65;;;5.70;99.90;;;;;;4959600;28;20043;-92
2022/12/01 05:29:10;;;;;;;72.70;29.98;;;5.70;99.90;;;;;;4943459;28;20472;-92
2022/12/01 05:31:36;;;;;;;60.95;25.90;;;5.70;99.90;;;;;;4941930;28;20218;-92
2022/12/01 05:34:01;;;;;;;67.53;26.17;;;5.80;99.90;;;;;;4958510;28;20097;-92
2022/12/01 05:36:31;;;;;;;63.45;27.73;;;5.70;99.90;;;;;;4958804;28;20047;-92
2022/12/01 05:38:56;;;;;;;70.18;28.35;;;5.70;99.90;;;;;;4941939;28;20101;-91
2022/12/01 05:41:22;;;;;;;68.18;27.60;;;5.70;99.90;;;;;;4958093;28;20046;-93
2022/12/01 05:43:47;;;;;;;68.80;28.25;;;5.70;99.90;;;;;;4957379;28;20046;-93
2022/12/01 05:46:13;;;;;;;72.75;29.15;;;5.70;99.90;;;;;;4943063;28;20050;-92
2022/12/01 05:48:39;;;;;;;67.20;29.10;;;5.70;99.90;;;;;;4942611;28;20050;-93
2022/12/01 05:51:12;;;;;;;73.85;29.88;;;5.70;99.90;;;;;;4958031;28;20097;-92
2022/12/01 05:53:37;;;;;;;70.15;29.00;;;5.70;99.90;;;;;;4943069;28;20042;-92
2022/12/01 05:56:04;;;;;;;75.40;29.08;;;5.70;99.90;;;;;;4958926;28;20415;-92
2022/12/01 05:58:32;;;;;;;74.75;31.20;;;5.70;99.90;;;;;;4942268;28;20050;-91
2022/12/01 06:00:58;;;;;;;71.45;29.52;;;5.70;99.90;;;;;;4958324;28;20047;-93
2022/12/01 06:03:24;;;;;;;79.38;34.38;;;5.70;99.90;;;;;;4958917;28;20388;-91
2022/12/01 06:05:50;;;;;;;79.78;29.73;;;5.70;99.90;;;;;;4957971;28;20075;-93
2022/12/01 06:08:15;;;;;;;71.45;30.38;;;5.70;99.90;;;;;;4975925;28;20396;-93
2022/12/01 06:10:41;;;;;;;88.72;35.33;;;5.70;99.90;;;;;;4954296;29;20110;-92
2022/12/01 06:13:07;;;;;;;79.20;31.50;;;5.70;99.90;;;;;;4939449;29;20082;-92
2022/12/01 06:15:32;;;;;;;79.28;30.95;;;5.80;99.90;;;;;;4938913;29;20039;-92
2022/12/01 06:17:59;;;;;;;68.72;28.15;;;5.70;99.90;;;;;;4938911;29;20201;-92
2022/12/01 06:20:26;;;;;;;81.00;29.75;;;5.80;99.90;;;;;;4939612;29;20051;-93
2022/12/01 06:22:51;;;;;;;72.38;29.38;;;5.70;99.90;;;;;;4939056;29;20051;-92
2022/12/01 06:25:17;;;;;;;71.45;30.23;;;5.80;99.90;;;;;;4960665;28;20524;-93
2022/12/01 06:27:43;;;;;;;71.72;30.88;;;5.80;99.90;;;;;;4939069;29;20055;-92
2022/12/01 06:30:09;;;;;;;76.85;29.92;;;5.80;99.90;;;;;;4939176;29;20047;-91
2022/12/01 06:32:35;;;;;;;68.82;27.35;;;5.80;99.90;;;;;;4939513;29;20074;-94
2022/12/01 06:35:00;;;;;;;75.53;29.83;;;5.80;99.90;;;;;;4956944;29;20040;-93
2022/12/01 06:37:27;;;;;;;81.35;33.38;;;5.80;99.90;;;;;;4939949;28;20078;-90
2022/12/01 06:39:52;;;;;;;75.03;30.27;;;5.80;99.90;;;;;;4960870;28;20102;-91
2022/12/01 06:42:18;;;;;;;77.85;31.25;;;5.80;99.90;;;;;;4965127;28;20043;-90
2022/12/01 06:44:45;;;;;;;75.72;29.17;;;5.80;99.90;;;;;;4962892;28;20050;-91
2022/12/01 06:47:10;;;;;;;83.53;29.05;;;5.80;99.90;;;;;;4977130;28;20019;-88
2022/12/01 06:49:37;;;;;;;75.97;28.95;;;5.80;99.90;;;;;;4962878;28;20060;-90
2022/12/01 06:52:02;;;;;;;75.82;28.55;;;5.80;99.90;;;;;;4966262;28;20053;-91
2022/12/01 06:54:28;;;;;;;77.13;32.25;;;5.80;99.90;;;;;;4983254;28;20019;-89
2022/12/01 06:56:54;;;;;;;87.63;35.90;;;5.80;99.90;;;;;;4967531;28;20042;-88
2022/12/01 06:59:19;;;;;;;78.15;35.22;;;5.80;99.90;;;;;;4982088;28;20070;-91
2022/12/01 07:01:45;;;;;;;80.45;34.72;;;5.80;99.90;;;;;;4984564;28;20057;-90
2022/12/01 07:04:11;;;;;;;83.70;34.70;;;5.80;99.90;;;;;;4980780;28;20039;-91
2022/12/01 07:06:36;;;;;;;78.15;30.73;;;5.80;99.90;;;;;;4983719;28;20050;-91
2022/12/01 07:09:02;;;;;;;79.55;31.27;;;5.80;99.90;;;;;;4970759;28;20031;-92
2022/12/01 07:11:31;;;;;;;81.53;33.03;;;5.80;99.90;;;;;;4972925;28;20023;-90
2022/12/01 07:13:57;;;;;;;84.78;33.67;;;5.80;99.90;;;;;;4967712;28;20047;-91
2022/12/01 07:16:22;;;;;;;73.03;31.83;;;5.80;99.90;;;;;;4967813;28;20049;-90
2022/12/01 07:18:49;;;;;;;68.47;29.35;;;5.80;99.90;;;;;;4989483;28;20551;-91
2022/12/01 07:21:15;;;;;;;72.72;31.35;;;5.80;99.90;;;;;;4962433;28;20126;-91
2022/12/01 07:23:42;;;;;;;78.68;33.35;;;5.80;99.90;;;;;;4962794;28;20051;-90
2022/12/01 07:26:13;;;;;;;72.65;30.63;;;5.70;99.90;;;;;;4941944;28;20043;-91
2022/12/01 07:28:39;;;;;;;77.90;31.95;;;5.80;99.90;;;;;;4953478;28;20050;-91
2022/12/01 07:31:17;;;;;;;81.75;34.30;;;5.80;99.90;;;;;;4939306;28;20051;-92
2022/12/01 07:33:42;;;;;;;76.35;30.02;;;5.80;99.90;;;;;;4933671;29;20047;-91
2022/12/01 07:36:10;;;;;;;75.35;30.42;;;5.80;99.90;;;;;;4942994;29;20039;-93
2022/12/01 07:38:36;;;;;;;75.82;31.88;;;5.80;99.90;;;;;;4945295;28;20039;-92
2022/12/01 07:41:10;;;;;;;74.13;30.65;;;5.80;99.90;;;;;;4959126;28;20042;-93
2022/12/01 07:43:37;;;;;;;75.57;33.53;;;5.80;99.90;;;;;;4955615;28;20043;-90
2022/12/01 07:46:14;;;;;;;78.65;34.92;;;5.90;99.90;;;;;;4957446;28;20046;-91
2022/12/01 07:48:40;;;;;;;77.97;30.60;;;5.80;99.90;;;;;;4973803;28;20058;-93
2022/12/01 07:51:08;;;;;;;74.72;31.77;;;5.80;99.90;;;;;;4949715;28;20038;-92
2022/12/01 07:53:34;;;;;;;82.20;34.63;;;5.80;99.90;;;;;;4950534;28;20078;-93
2022/12/01 07:56:00;;;;;;;79.25;30.30;;;5.80;99.90;;;;;;4946337;28;20109;-93
2022/12/01 07:58:26;;;;;;;76.15;31.55;;;5.80;99.90;;;;;;4933434;28;20193;-93
2022/12/01 08:00:53;;;;;;;84.43;34.55;;;5.80;99.90;;;;;;4945002;28;20399;-93
2022/12/01 08:03:19;;;;;;;78.30;29.15;;;5.80;99.90;;;;;;4942553;28;20038;-92
2022/12/01 08:05:44;;;;;;;76.68;30.75;;;5.80;99.90;;;;;;4945436;28;20122;-91
2022/12/01 08:08:10;;;;;;;69.50;30.90;;;5.90;99.90;;;;;;4963505;28;20525;-92
2022/12/01 08:10:36;;;;;;;71.03;28.75;;;5.90;99.90;;;;;;4979542;28;20098;-93
2022/12/01 08:13:02;;;;;;;76.40;32.83;;;5.90;99.90;;;;;;4960666;28;20121;-94
2022/12/01 08:15:28;;;;;;;78.18;31.85;;;5.90;99.90;;;;;;4944390;28;20069;-93
2022/12/01 08:17:54;;;;;;;85.35;34.72;;;5.90;99.90;;;;;;4941533;28;20050;-91
2022/12/01 08:20:20;;;;;;;75.05;29.92;;;6.00;99.90;;;;;;4951505;28;20096;-91
2022/12/01 08:22:46;;;;;;;80.53;32.33;;;5.90;99.90;;;;;;4956736;28;20392;-88
2022/12/01 08:25:11;;;;;;;76.47;29.70;;;5.90;99.90;;;;;;4949473;28;20043;-90
2022/12/01 08:27:37;;;;;;;80.57;33.20;;;5.90;99.90;;;;;;4938600;28;20527;-89
2022/12/01 08:30:03;;;;;;;73.05;29.17;;;6.00;99.90;;;;;;4958742;28;20630;-91
2022/12/01 08:32:29;;;;;;;75.13;32.72;;;6.00;99.90;;;;;;4939812;29;20058;-87
2022/12/01 08:34:55;;;;;;;78.15;33.67;;;6.00;99.90;;;;;;4939474;28;20055;-87
2022/12/01 08:37:21;;;;;;;72.13;30.13;;;6.00;99.90;;;;;;4955741;28;20042;-86
2022/12/01 08:39:46;;;;;;;79.43;32.67;;;6.00;99.90;;;;;;4958233;28;20487;-86
2022/12/01 08:42:12;;;;;;;71.78;29.52;;;6.10;99.90;;;;;;4942333;28;20039;-87
2022/12/01 08:44:37;;;;;;;73.40;34.65;;;6.10;99.90;;;;;;4956621;28;20042;-88
2022/12/01 08:47:03;;;;;;;77.25;35.95;;;6.10;99.90;;;;;;4942312;28;20050;-88
2022/12/01 08:49:29;;;;;;;79.50;30.17;;;6.10;99.90;;;;;;4955809;28;20043;-88
2022/12/01 08:51:55;;;;;;;83.60;34.05;;;6.10;99.90;;;;;;4925322;28;20571;-88
2022/12/01 08:54:21;;;;;;;125.68;45.95;;;6.10;99.90;;;;;;4920661;28;20047;-87
2022/12/01 08:56:46;;;;;;;78.13;30.95;;;6.20;99.90;;;;;;4913260;28;20053;-85
2022/12/01 08:59:12;;;;;;;69.72;31.42;;;6.20;99.90;;;;;;4921364;28;20398;-94
2022/12/01 09:01:53;;;;;;;78.55;35.75;;;6.20;99.90;;;;;;4914003;28;20557;-87
2022/12/01 09:04:21;;;;;;;70.88;29.88;;;6.20;99.90;;;;;;4917013;28;20507;-88
2022/12/01 09:06:48;;;;;;;69.82;27.80;;;6.30;99.90;;;;;;4903772;28;20046;-88
2022/12/01 09:09:17;;;;;;;90.90;37.25;;;6.30;99.90;;;;;;4922129;28;20071;-88
2022/12/01 09:11:44;;;;;;;75.18;29.23;;;6.30;99.90;;;;;;4940342;28;20270;-88
2022/12/01 09:14:10;;;;;;;75.55;32.92;;;6.30;99.90;;;;;;4925239;28;20448;-88
2022/12/01 09:16:36;;;;;;;65.97;27.20;;;6.30;99.90;;;;;;4936340;28;20062;-88
2022/12/01 09:19:02;;;;;;;91.75;53.28;;;6.30;99.90;;;;;;4924320;28;20039;-88
2022/12/01 09:21:29;;;;;;;71.07;29.35;;;6.50;99.90;;;;;;4903638;28;20047;-88
2022/12/01 09:23:55;;;;;;;59.60;26.55;;;6.50;99.90;;;;;;4916539;28;20047;-89
2022/12/01 09:26:23;;;;;;;69.85;28.05;;;6.40;99.90;;;;;;4940008;28;20055;-88
2022/12/01 09:28:52;;;;;;;64.72;29.20;;;6.40;99.90;;;;;;4934531;28;20043;-88
2022/12/01 09:31:19;;;;;;;74.20;31.75;;;6.50;99.90;;;;;;4927049;28;20421;-88
2022/12/01 09:33:45;;;;;;;68.97;29.35;;;6.50;99.90;;;;;;4912298;28;20353;-88
2022/12/01 09:36:11;;;;;;;65.53;27.95;;;6.50;99.90;;;;;;4921980;28;20062;-88
2022/12/01 09:38:37;;;;;;;70.55;31.48;;;6.50;99.90;;;;;;4916179;28;20035;-88
2022/12/01 09:41:17;;;;;;;62.83;28.80;;;6.50;99.90;;;;;;4911466;28;20396;-88
2022/12/01 09:43:57;;;;;;;73.38;33.17;;;6.60;99.90;;;;;;4934911;28;20051;-89
2022/12/01 09:46:31;;;;;;;63.85;27.95;;;6.60;99.90;;;;;;4907469;28;20046;-88
2022/12/01 09:48:58;;;;;;;71.97;30.73;;;6.60;99.90;;;;;;4928966;28;20046;-88
2022/12/01 09:51:26;;;;;;;67.40;29.05;;;6.60;99.90;;;;;;4918709;29;20047;-88
2022/12/01 09:53:55;;;;;;;62.30;30.08;;;6.60;99.90;;;;;;4934717;28;20201;-88
2022/12/01 09:56:31;;;;;;;65.20;27.77;;;6.70;99.90;;;;;;4931898;28;20039;-89
2022/12/01 09:59:05;;;;;;;79.18;49.20;;;6.70;99.90;;;;;;4917314;28;20047;-86
2022/12/01 10:01:43;;;;;;;69.45;32.30;;;6.80;99.90;;;;;;4915649;28;20047;-89
2022/12/01 10:04:12;;;;;;;60.00;25.50;;;6.70;99.90;;;;;;4929812;28;20039;-88
2022/12/01 10:06:44;;;;;;;68.68;30.20;;;6.80;99.90;;;;;;4914778;28;20034;-88
2022/12/01 10:09:24;;;;;;;65.47;31.30;;;6.80;99.90;;;;;;4931247;28;20050;-89
2022/12/01 10:11:53;;;;;;;62.88;27.65;;;6.80;99.90;;;;;;4915744;28;20034;-88
2022/12/01 10:14:20;;;;;;;66.70;30.48;;;6.80;99.90;;;;;;4918945;28;20053;-88
2022/12/01 10:17:11;;;;;;;59.10;28.45;;;6.80;99.90;;;;;;4924373;28;20486;-88
2022/12/01 10:19:52;;;;;;;61.00;26.90;;;6.80;99.90;;;;;;4910536;28;20070;-89
2022/12/01 10:22:21;;;;;;;;;;;6.80;99.90;;;;;;4930252;28;20622;-87
2022/12/01 10:25:00;;;;;;;59.38;27.52;;;6.80;99.90;;;;;;4933784;28;19929;-87
2022/12/01 10:27:45;;;;;;;53.92;23.90;;;6.80;99.90;;;;;;4930739;28;20098;-87
2022/12/01 10:30:15;;;;;;;62.85;28.50;;;6.80;99.90;;;;;;4917934;28;20511;-88
2022/12/01 10:32:52;;;;;;;58.30;25.15;;;6.80;99.90;;;;;;4929224;28;20149;-87
2022/12/01 10:35:20;;;;;;;60.47;28.17;;;6.90;99.90;;;;;;4918040;28;20078;-87
2022/12/01 10:37:50;;;;;;;60.85;29.77;;;6.90;99.90;;;;;;4900665;28;20436;-87
2022/12/01 10:40:16;;;;;;;56.55;27.65;;;6.90;99.90;;;;;;4916692;28;20051;-87
2022/12/01 10:42:45;;;;;;;58.95;27.00;;;7.00;99.90;;;;;;4915114;28;20103;-87
2022/12/01 10:45:35;;;;;;;69.00;44.38;;;7.00;99.90;;;;;;4918152;28;20353;-86
2022/12/01 10:48:16;;;;;;;56.35;26.48;;;7.10;99.90;;;;;;4907263;28;20059;-86
2022/12/01 10:50:45;;;;;;;55.83;24.40;;;7.10;99.90;;;;;;4930153;28;20489;-87
2022/12/01 10:53:27;;;;;;;46.20;22.70;;;7.10;99.90;;;;;;4902546;28;20134;-87
2022/12/01 10:56:12;;;;;;;55.88;25.33;;;7.10;99.90;;;;;;4929483;28;20031;-87
2022/12/01 10:58:58;;;;;;;56.17;28.85;;;7.10;99.90;;;;;;4934016;28;20066;-87
2022/12/01 11:01:27;;;;;;;57.47;27.60;;;7.10;99.90;;;;;;4916093;28;20126;-86
2022/12/01 11:04:00;;;;;;;52.97;23.83;;;7.20;99.90;;;;;;4936804;28;20065;-86
2022/12/01 11:06:29;;;;;;;52.42;24.17;;;7.20;99.90;;;;;;4922252;28;20121;-86
2022/12/01 11:08:58;;;;;;;63.20;40.70;;;7.20;99.90;;;;;;4914089;28;20280;-87
2022/12/01 11:11:39;;;;;;;54.10;26.13;;;7.30;99.90;;;;;;4915320;28;20385;-86
2022/12/01 11:14:43;;;;;;;51.72;23.10;;;7.30;99.90;;;;;;4915813;28;20117;-86
2022/12/01 11:17:28;;;;;;;52.45;26.58;;;7.20;99.90;;;;;;4910455;28;20055;-86
2022/12/01 11:19:54;;;;;;;58.15;28.63;;;7.20;99.90;;;;;;4929245;28;20043;-86
2022/12/01 11:22:28;;;;;;;62.88;41.67;;;7.20;99.90;;;;;;4933244;28;20046;-86
2022/12/01 11:25:03;;;;;;;49.80;26.98;;;7.30;99.90;;;;;;4912914;28;20118;-86
2022/12/01 11:27:35;;;;;;;53.58;27.38;;;7.20;99.90;;;;;;4903614;29;20064;-88
2022/12/01 11:30:23;;;;;;;62.10;41.60;;;7.20;99.90;;;;;;4888045;29;20607;-87
2022/12/01 11:32:55;;;;;;;58.33;29.85;;;7.30;99.90;;;;;;4892459;29;20499;-87
2022/12/01 11:35:24;;;;;;;56.10;27.23;;;7.30;99.90;;;;;;4889049;29;20044;-87
2022/12/01 11:37:52;;;;;;;51.53;24.33;;;7.20;99.90;;;;;;4900779;29;20136;-87
2022/12/01 11:40:31;;;;;;;51.30;26.30;;;7.20;99.90;;;;;;4895694;29;20044;-88
2022/12/01 11:43:04;;;;;;;62.40;42.58;;;7.20;99.90;;;;;;4894855;29;20070;-86
2022/12/01 11:45:33;;;;;;;53.13;28.55;;;7.30;99.90;;;;;;4875330;29;20048;-88
2022/12/01 11:48:24;;;;;;;55.45;28.58;;;7.30;99.90;;;;;;4891792;29;20130;-87
2022/12/01 11:51:01;;;;;;;52.05;25.38;;;7.30;99.90;;;;;;4879450;29;20078;-88
2022/12/01 11:53:29;;;;;;;48.95;23.98;;;7.30;99.90;;;;;;4891555;29;20571;-88
2022/12/01 11:56:22;;;;;;;54.40;25.60;;;7.30;99.90;;;;;;4899542;29;20730;-87
2022/12/01 11:58:53;;;;;;;52.10;26.90;;;7.40;99.90;;;;;;4898372;29;20460;-88
2022/12/01 12:02:12;;;;;;;52.83;23.23;;;7.30;99.90;;;;;;4899808;29;20524;-88
2022/12/01 12:04:40;;;;;;;62.67;42.60;;;7.30;99.90;;;;;;4812511;29;20526;-88
2022/12/01 12:07:37;;;;;;;55.70;27.60;;;7.40;99.90;;;;;;4827140;29;20261;-88
2022/12/01 12:10:34;;;;;;;46.17;23.52;;;7.40;99.90;;;;;;4824808;29;20136;-87
2022/12/01 12:13:15;;;;;;;48.15;21.95;;;7.40;99.90;;;;;;4826616;29;20139;-86
2022/12/01 12:15:52;;;;;;;43.23;20.73;;;7.30;99.90;;;;;;4825521;29;20438;-87
2022/12/01 12:18:34;;;;;;;54.30;38.30;;;7.30;99.90;;;;;;4842430;29;20136;-87
2022/12/01 12:21:02;;;;;;;56.15;39.50;;;7.30;99.90;;;;;;4820130;29;20045;-86
2022/12/01 12:23:43;;;;;;;43.20;23.95;;;7.40;99.90;;;;;;4832713;29;20575;-85
2022/12/01 12:26:19;;;;;;;46.10;22.13;;;7.30;99.90;;;;;;4832700;29;20071;-84
2022/12/01 12:28:59;;;;;;;46.00;23.10;;;7.30;99.90;;;;;;4814117;29;20060;-85
2022/12/01 12:31:49;;;;;;;49.13;25.35;;;7.30;99.90;;;;;;4859049;29;20535;-85
2022/12/01 12:34:27;;;;;;;46.08;24.17;;;7.30;99.90;;;;;;4844556;29;20406;-85
2022/12/01 12:37:14;;;;;;;48.25;24.95;;;7.30;99.90;;;;;;4894344;29;20131;-86
2022/12/01 12:40:08;;;;;;;44.83;23.95;;;7.40;99.90;;;;;;4879998;29;20044;-84
2022/12/01 12:42:42;;;;;;;52.17;37.15;;;7.30;99.90;;;;;;4851637;29;20144;-83
2022/12/01 12:45:26;;;;;;;44.13;25.10;;;7.40;99.90;;;;;;4848401;29;20053;-83
2022/12/01 12:47:59;;;;;;;42.08;22.27;;;7.30;99.90;;;;;;4848701;29;20425;-84
2022/12/01 12:50:50;;;;;;;50.38;35.78;;;7.30;99.90;;;;;;4850354;29;20124;-85
2022/12/01 12:53:31;;;;;;;45.10;22.05;;;7.40;99.90;;;;;;4838008;29;20053;-83
2022/12/01 12:56:01;;;;;;;43.33;23.70;;;7.40;99.90;;;;;;4836423;29;20061;-83
2022/12/01 12:58:52;;;;;;;51.78;37.30;;;7.30;99.90;;;;;;4839359;29;20071;-83
2022/12/01 13:01:40;;;;;;;51.03;37.83;;;7.40;99.90;;;;;;4835402;29;20064;-82
2022/12/01 13:04:19;;;;;;;50.00;37.80;;;7.40;99.90;;;;;;4840456;29;20045;-84